Time;durP1;ratioP1;P1;durP2;ratioP2;P2;SDS_P1;SDS_P2;PMS_P1;PMS_P2;Temp;Humidity;BMP_temperature;BMP_pressure;BME280_temperature;BME280_humidity;BME280_pressure;Samples;Min_cycle;Max_cycle;Signal;HPM_P1;HPM_P2
2022/05/24 00:07:16;;;;;;;5.4;7.5;;;;;;;-133;88.4;65240;;;;
2022/05/24 00:17:16;;;;;;;4.7;6.3;;;;;;;-133;89.5;65250;;;;
2022/05/24 00:27:16;;;;;;;4.7;6.3;;;;;;;-133;89.7;65240;;;;
2022/05/24 00:38:16;;;;;;;4.7;6.3;;;;;;;-133;89.9;65240;;;;
2022/05/24 00:48:16;;;;;;;6;9;;;;;;;-133;90.1;65240;;;;
2022/05/24 00:58:16;;;;;;;6;9;;;;;;;-133;90.9;65240;;;;
2022/05/24 01:08:16;;;;;;;6;9;;;;;;;-133;90.9;65240;;;;
2022/05/24 01:19:16;;;;;;;5.7;8.5;;;;;;;-133;90.5;65240;;;;
2022/05/24 01:29:16;;;;;;;5.7;8.5;;;;;;;-133;90.6;65240;;;;
2022/05/24 01:39:16;;;;;;;5.7;8.5;;;;;;;-133;90.5;65240;;;;
2022/05/24 01:49:16;;;;;;;5.3;8.2;;;;;;;-133;91.4;65240;;;;
2022/05/24 01:59:16;;;;;;;5.3;8.2;;;;;;;-133;91.6;65240;;;;
2022/05/24 02:10:16;;;;;;;5.3;8.2;;;;;;;-133;91.1;65240;;;;
2022/05/24 02:20:16;;;;;;;6.4;8.3;;;;;;;-133;91.3;65240;;;;
2022/05/24 02:31:17;;;;;;;6.4;8.3;;;;;;;-133;90.9;65240;;;;
2022/05/24 02:42:16;;;;;;;6.4;8.3;;;;;;;-133;91.1;65240;;;;
2022/05/24 02:52:16;;;;;;;5.9;7.9;;;;;;;-133;91.7;65240;;;;
2022/05/24 03:02:16;;;;;;;5.9;7.9;;;;;;;-133;91.1;65240;;;;
2022/05/24 03:23:16;;;;;;;6.9;9.6;;;;;;;-133;91.4;65240;;;;
2022/05/24 03:33:16;;;;;;;6.9;9.6;;;;;;;-133;90.9;65240;;;;
2022/05/24 03:44:16;;;;;;;6.9;9.6;;;;;;;-133;91.3;65240;;;;
2022/05/24 03:54:16;;;;;;;5.7;8.7;;;;;;;-133;90.8;65240;;;;
2022/05/24 04:04:16;;;;;;;5.7;8.7;;;;;;;-133;90.9;65230;;;;
2022/05/24 04:14:16;;;;;;;5.7;8.7;;;;;;;-133;90;65240;;;;
2022/05/24 04:25:16;;;;;;;5.6;8.5;;;;;;;-133;89.6;65230;;;;
2022/05/24 04:36:16;;;;;;;5.6;8.5;;;;;;;-133;88.6;65240;;;;
2022/05/24 04:46:16;;;;;;;5.7;8.9;;;;;;;-133;87.8;65240;;;;
2022/05/24 04:57:16;;;;;;;5.7;8.9;;;;;;;-133;87.1;65230;;;;
2022/05/24 05:07:16;;;;;;;5.7;8.9;;;;;;;-133;87.1;65230;;;;
2022/05/24 05:17:17;;;;;;;5.8;8.9;;;;;;;-133;86;65240;;;;
2022/05/24 05:27:16;;;;;;;5.8;8.9;;;;;;;-133;84.5;65230;;;;
2022/05/24 05:38:16;;;;;;;5.8;8.9;;;;;;;-133;84;65230;;;;
2022/05/24 05:48:16;;;;;;;6;9;;;;;;;-133;83.9;65230;;;;
2022/05/24 05:58:16;;;;;;;6;9;;;;;;;-133;82.2;65220;;;;
2022/05/24 06:09:16;;;;;;;6;9;;;;;;;-133;82.2;65220;;;;
2022/05/24 06:19:16;;;;;;;6;9.9;;;;;;;-133;79.5;65230;;;;
2022/05/24 06:30:16;;;;;;;6;9.9;;;;;;;-133;77.3;65220;;;;
2022/05/24 06:40:16;;;;;;;6;9.9;;;;;;;-133;76.8;65220;;;;
2022/05/24 06:51:16;;;;;;;5.9;8.7;;;;;;;-133;77.4;65220;;;;
2022/05/24 07:12:16;;;;;;;5.9;8.7;;;;;;;-133;77.8;65220;;;;
2022/05/24 07:22:16;;;;;;;6.4;12.5;;;;;;;-133;74.3;65220;;;;
2022/05/24 07:32:16;;;;;;;6.4;12.5;;;;;;;-133;73.7;65210;;;;
2022/05/24 07:53:16;;;;;;;5.8;10.2;;;;;;;-133;72.8;65220;;;;
2022/05/24 08:04:16;;;;;;;5.8;10.2;;;;;;;-133;71.7;65220;;;;
2022/05/24 08:15:16;;;;;;;6.3;11.6;;;;;;;-133;67.6;65220;;;;
2022/05/24 08:26:16;;;;;;;6.3;11.6;;;;;;;-133;68.1;65220;;;;
2022/05/24 08:37:16;;;;;;;6.3;11.6;;;;;;;-133;68.2;65210;;;;
2022/05/24 08:58:16;;;;;;;5.6;9.5;;;;;;;-133;69;65210;;;;
2022/05/24 09:08:16;;;;;;;5.6;9.5;;;;;;;-133;65.6;65210;;;;
2022/05/24 09:19:16;;;;;;;5.9;11.3;;;;;;;-133;64.1;65210;;;;
2022/05/24 09:29:17;;;;;;;5.9;11.3;;;;;;;-133;63.5;65210;;;;
2022/05/24 09:39:16;;;;;;;5.9;11.3;;;;;;;-133;62.4;65210;;;;
2022/05/24 09:50:16;;;;;;;5.4;9.5;;;;;;;-133;62;65210;;;;
2022/05/24 10:00:20;;;;;;;5.4;9.5;;;;;;;-133;62.3;65210;;;;
2022/05/24 10:11:16;;;;;;;5.4;9.5;;;;;;;-133;62.5;65210;;;;
2022/05/24 10:21:16;;;;;;;5.5;10;;;;;;;-133;64.6;65210;;;;
2022/05/24 10:38:17;;;;;;;5.5;10;;;;;;;-133;64;65210;;;;
2022/05/24 10:42:16;;;;;;;5.5;10;;;;;;;-133;63.3;65220;;;;
2022/05/24 10:52:17;;;;;;;6.5;13.5;;;;;;;-133;63.1;65210;;;;
2022/05/24 11:03:16;;;;;;;6.5;13.5;;;;;;;-133;62.8;65210;;;;
2022/05/24 11:13:16;;;;;;;6.5;13.5;;;;;;;-133;62.3;65210;;;;
2022/05/24 11:23:16;;;;;;;6.5;11.2;;;;;;;-133;61.3;65210;;;;
2022/05/24 11:33:16;;;;;;;6.5;11.2;;;;;;;-133;61.1;65210;;;;
2022/05/24 11:44:16;;;;;;;6.5;11.2;;;;;;;-133;58.7;65210;;;;
2022/05/24 11:54:16;;;;;;;6.2;13.5;;;;;;;-133;58.8;65210;;;;
2022/05/24 12:15:16;;;;;;;6;12.9;;;;;;;-133;62.6;65210;;;;
2022/05/24 12:25:16;;;;;;;6;12.9;;;;;;;-133;66;65210;;;;
2022/05/24 12:36:16;;;;;;;6;12.9;;;;;;;-133;65.9;65210;;;;
2022/05/24 12:46:16;;;;;;;5.4;12.3;;;;;;;-133;66.8;65210;;;;
2022/05/24 12:56:16;;;;;;;5.4;12.3;;;;;;;-133;67.6;65210;;;;
2022/05/24 13:06:16;;;;;;;5.4;12.3;;;;;;;-133;65.7;65210;;;;
2022/05/24 13:17:17;;;;;;;5.7;11.7;;;;;;;-133;64.5;65210;;;;
2022/05/24 13:28:16;;;;;;;5.7;11.7;;;;;;;-133;61.2;65220;;;;
2022/05/24 13:38:16;;;;;;;5.7;11.7;;;;;;;-133;60.6;65220;;;;
2022/05/24 13:48:16;;;;;;;4.4;10.9;;;;;;;-133;56.7;65210;;;;
2022/05/24 13:59:16;;;;;;;4.4;10.9;;;;;;;-133;56;65220;;;;
2022/05/24 14:10:16;;;;;;;4.4;10.9;;;;;;;-133;54.1;65210;;;;
2022/05/24 14:21:16;;;;;;;3.2;8;;;;;;;-133;53.1;65210;;;;
2022/05/24 14:32:16;;;;;;;3.2;8;;;;;;;-133;53.7;65210;;;;
2022/05/24 14:43:17;;;;;;;3.2;8;;;;;;;-133;54;65210;;;;
2022/05/24 14:53:16;;;;;;;3.5;6.4;;;;;;;-133;53.7;65220;;;;
2022/05/24 15:03:16;;;;;;;3.5;6.4;;;;;;;-133;55.3;65210;;;;
2022/05/24 15:24:16;;;;;;;3.3;7.9;;;;;;;-133;56.3;65220;;;;
2022/05/24 15:35:16;;;;;;;3.3;7.9;;;;;;;-133;56.5;65210;;;;
2022/05/24 15:46:16;;;;;;;4.2;9.4;;;;;;;-133;57.7;65210;;;;
2022/05/24 15:56:16;;;;;;;4.2;9.4;;;;;;;-133;57.7;65210;;;;
2022/05/24 16:17:16;;;;;;;3.5;8;;;;;;;-133;59.5;65210;;;;
2022/05/24 16:28:16;;;;;;;3.5;8;;;;;;;-133;68.1;65220;;;;
2022/05/24 16:38:16;;;;;;;3.5;8;;;;;;;-133;68.7;65220;;;;
2022/05/24 16:48:16;;;;;;;4.3;9.1;;;;;;;-133;70.5;65220;;;;
2022/05/24 16:58:48;;;;;;;4.3;9.1;;;;;;;-133;72.3;65220;;;;
2022/05/24 17:09:16;;;;;;;4.3;9.1;;;;;;;-133;76.1;65220;;;;
2022/05/24 17:20:16;;;;;;;7.9;12.3;;;;;;;-133;79.2;65220;;;;
2022/05/24 17:31:16;;;;;;;7.9;12.3;;;;;;;-133;83.7;65220;;;;
2022/05/24 17:41:16;;;;;;;7.9;12.3;;;;;;;-133;83.8;65220;;;;
2022/05/24 17:52:17;;;;;;;7;9.5;;;;;;;-133;84.9;65220;;;;
2022/05/24 18:02:16;;;;;;;7;9.5;;;;;;;-133;84.8;65220;;;;
2022/05/24 18:12:16;;;;;;;7;9.5;;;;;;;-133;86.2;65220;;;;
2022/05/24 18:22:17;;;;;;;7;10.7;;;;;;;-133;84.8;65220;;;;
2022/05/24 18:33:20;;;;;;;7;10.7;;;;;;;-133;87.1;65220;;;;
2022/05/24 18:43:16;;;;;;;7;10.7;;;;;;;-133;86.7;65220;;;;
2022/05/24 18:53:16;;;;;;;7.9;11.5;;;;;;;-133;88.3;65220;;;;
2022/05/24 19:04:16;;;;;;;7.9;11.5;;;;;;;-133;89.1;65210;;;;
2022/05/24 19:14:16;;;;;;;7.9;11.5;;;;;;;-133;91.6;65210;;;;
2022/05/24 19:25:16;;;;;;;12.7;18.6;;;;;;;-133;91.6;65220;;;;
2022/05/24 19:36:16;;;;;;;12.7;18.6;;;;;;;-133;91.3;65220;;;;
2022/05/24 19:47:18;;;;;;;13.3;15.3;;;;;;;-133;92.2;65210;;;;
2022/05/24 19:57:16;;;;;;;13.3;15.3;;;;;;;-133;91.8;65220;;;;
2022/05/24 20:08:16;;;;;;;13.3;15.3;;;;;;;-133;92.2;65210;;;;
2022/05/24 20:19:18;;;;;;;13.9;17.8;;;;;;;-133;92.4;65210;;;;
2022/05/24 20:29:16;;;;;;;13.9;17.8;;;;;;;-133;93.1;65210;;;;
2022/05/24 20:40:17;;;;;;;13.9;17.8;;;;;;;-133;94.2;65210;;;;
2022/05/24 20:50:16;;;;;;;15.2;17.6;;;;;;;-133;93.9;65210;;;;
2022/05/24 21:01:16;;;;;;;15.2;17.6;;;;;;;-133;94.3;65210;;;;
2022/05/24 21:12:16;;;;;;;15.2;17.6;;;;;;;-133;94.9;65210;;;;
2022/05/24 21:22:16;;;;;;;11.1;13.9;;;;;;;-133;95.4;65210;;;;
2022/05/24 21:33:16;;;;;;;11.1;13.9;;;;;;;-133;97;65200;;;;
2022/05/24 21:43:16;;;;;;;11.1;13.9;;;;;;;-133;98;65200;;;;
2022/05/24 21:54:16;;;;;;;13.2;19.7;;;;;;;-133;97.4;65200;;;;
2022/05/24 22:04:17;;;;;;;13.2;19.7;;;;;;;-133;97.7;65200;;;;
2022/05/24 22:15:18;;;;;;;13.5;15.3;;;;;;;-133;98;65200;;;;
2022/05/24 22:25:16;;;;;;;13.5;15.3;;;;;;;-133;98.1;65200;;;;
2022/05/24 22:35:16;;;;;;;13.5;15.3;;;;;;;-133;98.1;65210;;;;
2022/05/24 22:46:16;;;;;;;13.7;17.9;;;;;;;-133;97.1;65210;;;;
2022/05/24 22:56:16;;;;;;;13.7;17.9;;;;;;;-133;97.1;65210;;;;
2022/05/24 23:06:16;;;;;;;13.7;17.9;;;;;;;-133;97.1;65210;;;;
2022/05/24 23:16:16;;;;;;;12.2;13.7;;;;;;;-133;97.1;65200;;;;
2022/05/24 23:27:16;;;;;;;12.2;13.7;;;;;;;-133;98.2;65200;;;;
2022/05/24 23:37:16;;;;;;;12.2;13.7;;;;;;;-133;98.8;65210;;;;
2022/05/24 23:47:17;;;;;;;12.5;15;;;;;;;-133;99;65200;;;;
2022/05/24 23:58:16;;;;;;;12.5;15;;;;;;;-133;99;65200;;;;
